Time;durP1;ratioP1;P1;durP2;ratioP2;P2;SDS_P1;SDS_P2;PMS_P1;PMS_P2;Temp;Humidity;BMP_temperature;BMP_pressure;BME280_temperature;BME280_humidity;BME280_pressure;Samples;Min_cycle;Max_cycle;Signal;HPM_P1;HPM_P2
2021/05/28 00:02:22;;;;;;;;;;;;;;;15.05;74.50;96790.98;1767874;81;20184;-82
2021/05/28 00:04:48;;;;;;;;;;;;;;;15.05;75.50;96784.85;1767849;81;20140;-84
2021/05/28 00:07:14;;;;;;;;;;;;;;;15.10;75.52;96785.19;1767731;81;20137;-84
2021/05/28 00:09:40;;;;;;;;;;;;;;;15.15;75.08;96783.73;1767322;81;20152;-85
2021/05/28 00:12:07;;;;;;;;;;;;;;;15.22;74.41;96781.27;1767736;81;20165;-86
2021/05/28 00:14:33;;;;;;;;;;;;;;;15.26;75.29;96785.28;1747895;81;20166;-83
2021/05/28 00:16:59;;;;;;;;;;;;;;;15.39;75.05;96789.28;1744801;82;20173;-85
2021/05/28 00:19:27;;;;;;;;;;;;;;;15.44;75.99;96785.16;1744829;82;20146;-83
2021/05/28 00:21:53;;;;;;;;;;;;;;;15.51;75.22;96781.84;1744832;82;20151;-84
2021/05/28 00:24:20;;;;;;;;;;;;;;;15.58;75.08;96782.88;1744933;82;20179;-83
2021/05/28 00:26:46;;;;;;;;;;;;;;;15.60;74.01;96791.02;1744959;82;20265;-85
2021/05/28 00:29:12;;;;;;;;;;;;;;;15.63;74.62;96785.05;1758759;81;20160;-84
2021/05/28 00:31:39;;;;;;;;;;;;;;;15.69;75.36;96785.20;1767946;81;20164;-84
2021/05/28 00:34:05;;;;;;;;;;;;;;;15.79;75.50;96783.75;1767783;81;20152;-84
2021/05/28 00:36:31;;;;;;;;;;;;;;;15.84;75.47;96786.76;1767926;81;20184;-85
2021/05/28 00:38:58;;;;;;;;;;;;;;;15.87;74.55;96784.30;1767323;81;20235;-81
2021/05/28 00:41:24;;;;;;;;;;;;;;;15.90;75.35;96784.80;1748351;80;20151;-85
2021/05/28 00:43:50;;;;;;;;;;;;;;;15.96;75.00;96786.45;1783115;80;20183;-85
2021/05/28 00:46:16;;;;;;;;;;;;;;;15.96;74.22;96777.96;1783059;80;20171;-85
2021/05/28 00:48:42;;;;;;;;;;;;;;;15.95;75.90;96780.80;1782110;80;20504;-82
2021/05/28 00:51:08;;;;;;;;;;;;;;;16.00;75.35;96781.97;1778239;81;20143;-84
2021/05/28 00:53:35;;;;;;;;;;;;;;;16.06;74.57;96776.48;1778278;81;20156;-83
2021/05/28 00:56:01;;;;;;;;;;;;;;;16.06;74.71;96780.48;1775002;81;20221;-85
2021/05/28 00:58:28;;;;;;;;;;;;;;;16.02;73.91;96779.13;1752630;82;20147;-81
2021/05/28 01:00:56;;;;;;;;;;;;;;;15.97;73.69;96775.64;1752211;82;20162;-84
2021/05/28 01:03:23;;;;;;;;;;;;;;;15.95;74.24;96771.02;1752097;82;20150;-82
2021/05/28 01:05:49;;;;;;;;;;;;;;;15.95;74.22;96764.84;1752314;81;20147;-84
2021/05/28 01:08:15;;;;;;;;;;;;;;;15.96;73.86;96759.87;1752287;82;20150;-85
2021/05/28 01:10:41;;;;;;;;;;;;;;;15.95;74.02;96759.53;1752299;81;20154;-85
2021/05/28 01:13:10;;;;;;;;;;;;;;;15.91;73.66;96758.52;1752114;80;20158;-81
2021/05/28 01:15:36;;;;;;;;;;;;;;;15.89;73.83;96761.02;1754713;80;20154;-84
2021/05/28 01:18:03;;;;;;;;;;;;;;;15.86;73.81;96764.84;1752736;80;20165;-84
2021/05/28 01:20:30;;;;;;;;;;;;;;;15.84;74.07;96762.02;1748085;82;20482;-83
2021/05/28 01:22:58;;;;;;;;;;;;;;;15.85;75.64;96764.51;1748786;82;20529;-83
2021/05/28 01:25:26;;;;;;;;;;;;;;;15.90;74.59;96764.86;1752246;82;20530;-80
2021/05/28 01:27:52;;;;;;;;;;;;;;;15.90;74.76;96766.19;1752389;82;20466;-85
2021/05/28 01:30:19;;;;;;;;;;;;;;;15.91;74.93;96763.02;1752448;82;20138;-81
2021/05/28 01:32:46;;;;;;;;;;;;;;;15.95;74.79;96765.70;1752082;82;20146;-84
2021/05/28 01:35:14;;;;;;;;;;;;;;;15.98;74.56;96768.00;1723077;82;20163;-84
2021/05/28 01:37:40;;;;;;;;;;;;;;;15.93;74.48;96771.16;1752175;82;20126;-83
2021/05/28 01:40:08;;;;;;;;;;;;;;;15.92;74.55;96774.80;1777154;80;20152;-78
2021/05/28 01:42:34;;;;;;;;;;;;;;;15.91;74.48;96774.98;1776779;79;20270;-82
2021/05/28 01:45:03;;;;;;;;;;;;;;;15.92;74.83;96769.49;1747241;81;20225;-86
2021/05/28 01:47:29;;;;;;;;;;;;;;;15.95;74.56;96768.83;1737115;83;20146;-84
2021/05/28 01:49:56;;;;;;;;;;;;;;;15.98;74.76;96769.84;1737216;83;20159;-85
2021/05/28 01:52:23;;;;;;;;;;;;;;;16.03;74.77;96771.02;1737183;83;20485;-84
2021/05/28 01:54:50;;;;;;;;;;;;;;;16.05;74.57;96769.51;1737279;82;20158;-85
2021/05/28 01:57:16;;;;;;;;;;;;;;;16.06;74.39;96769.33;1737581;81;20170;-77
2021/05/28 01:59:44;;;;;;;;;;;;;;;16.05;74.40;96772.98;1767453;81;20160;-81
2021/05/28 02:02:13;;;;;;;;;;;;;;;16.02;74.02;96767.17;1767579;81;20517;-86
2021/05/28 02:04:39;;;;;;;;;;;;;;;16.01;74.01;96765.50;1767367;81;20780;-82
2021/05/28 02:07:05;;;;;;;;;;;;;;;16.03;74.48;96763.52;1755214;81;20502;-85
2021/05/28 02:09:32;;;;;;;;;;;;;;;16.07;74.50;96763.02;1737381;83;20479;-84
2021/05/28 02:11:59;;;;;;;;;;;;;;;16.08;73.89;96759.37;1737403;82;20147;-86
2021/05/28 02:14:26;;;;;;;;;;;;;;;16.10;74.38;96767.17;1757049;81;20160;-83
2021/05/28 02:16:53;;;;;;;;;;;;;;;16.12;73.69;96765.69;1745168;81;20158;-85
2021/05/28 02:19:20;;;;;;;;;;;;;;;16.08;73.77;96767.34;1719037;83;20147;-82
2021/05/28 02:21:48;;;;;;;;;;;;;;;16.09;74.03;96772.18;1737315;83;20150;-79
2021/05/28 02:24:15;;;;;;;;;;;;;;;16.08;73.69;96766.53;1737438;83;20166;-85
2021/05/28 02:26:44;;;;;;;;;;;;;;;16.01;73.18;96768.16;1737335;83;20166;-85
2021/05/28 02:29:10;;;;;;;;;;;;;;;16.01;73.18;96773.48;1737578;83;20167;-85
2021/05/28 02:31:37;;;;;;;;;;;;;;;15.97;73.15;96775.64;1738042;81;20163;-80
2021/05/28 02:34:04;;;;;;;;;;;;;;;15.98;73.79;96771.17;1737262;83;20182;-85
2021/05/28 02:36:30;;;;;;;;;;;;;;;15.95;72.97;96764.37;1737317;83;20206;-84
2021/05/28 02:38:56;;;;;;;;;;;;;;;15.91;73.38;96771.81;1737418;81;20167;-83
2021/05/28 02:41:22;;;;;;;;;;;;;;;15.92;73.78;96766.02;1758134;81;20165;-82
2021/05/28 02:43:49;;;;;;;;;;;;;;;15.92;73.45;96763.36;1762031;81;20185;-83
2021/05/28 02:46:15;;;;;;;;;;;;;;;15.89;74.01;96764.52;1763594;80;20492;-82
2021/05/28 02:48:41;;;;;;;;;;;;;;;15.89;74.00;96762.34;1778923;80;20521;-84
2021/05/28 02:51:08;;;;;;;;;;;;;;;15.89;73.99;96768.52;1768812;81;20129;-84
2021/05/28 02:53:35;;;;;;;;;;;;;;;15.92;73.95;96770.00;1781998;80;20171;-82
2021/05/28 02:56:02;;;;;;;;;;;;;;;15.90;73.91;96768.84;1794687;80;20511;-82
2021/05/28 02:58:28;;;;;;;;;;;;;;;15.92;73.98;96773.98;1763591;80;20501;-83
2021/05/28 03:00:54;;;;;;;;;;;;;;;15.95;73.82;96778.98;1766576;80;20213;-82
2021/05/28 03:03:20;;;;;;;;;;;;;;;15.96;73.68;96779.80;1762905;81;20138;-83
2021/05/28 03:05:49;;;;;;;;;;;;;;;15.97;73.68;96777.48;1761566;81;20189;-84
2021/05/28 03:08:18;;;;;;;;;;;;;;;16.00;73.79;96774.50;1762200;80;20141;-80
2021/05/28 03:10:44;;;;;;;;;;;;;;;16.02;73.67;96777.32;1762171;80;20594;-83
2021/05/28 03:13:11;;;;;;;;;;;;;;;16.05;73.84;96775.64;1761191;80;20507;-83
2021/05/28 03:15:38;;;;;;;;;;;;;;;16.09;74.10;96776.17;1761932;80;20494;-83
2021/05/28 03:18:05;;;;;;;;;;;;;;;16.16;73.62;96778.48;1761462;81;20507;-83
2021/05/28 03:20:36;;;;;;;;;;;;;;;16.20;73.88;96778.47;1761252;81;20245;-84
2021/05/28 03:23:04;;;;;;;;;;;;;;;16.23;73.77;96779.48;1758827;82;20193;-82
2021/05/28 03:25:30;;;;;;;;;;;;;;;16.32;74.01;96784.78;1751922;80;20486;-78
2021/05/28 03:27:56;;;;;;;;;;;;;;;16.37;73.71;96791.78;1764385;80;20490;-79
2021/05/28 03:30:23;;;;;;;;;;;;;;;16.40;73.59;96783.45;1759017;81;20614;-85
2021/05/28 03:32:49;;;;;;;;;;;;;;;16.40;73.26;96790.09;1762303;81;20215;-81
2021/05/28 03:35:15;;;;;;;;;;;;;;;16.41;73.16;96792.28;1763349;80;20159;-82
2021/05/28 03:37:42;;;;;;;;;;;;;;;16.37;73.11;96792.60;1763202;80;20163;-84
2021/05/28 03:40:09;;;;;;;;;;;;;;;16.30;73.05;96796.94;1761441;81;20157;-84
2021/05/28 03:42:35;;;;;;;;;;;;;;;16.27;73.08;96795.11;1759141;80;20161;-78
2021/05/28 03:45:04;;;;;;;;;;;;;;;16.23;73.52;96790.11;1747688;82;20130;-78
2021/05/28 03:47:31;;;;;;;;;;;;;;;16.20;72.89;96794.94;1749043;80;20146;-82
2021/05/28 03:49:57;;;;;;;;;;;;;;;16.10;72.86;96797.74;1762733;80;20221;-82
2021/05/28 03:52:23;;;;;;;;;;;;;;;16.00;73.02;96794.44;1771299;80;20523;-81
2021/05/28 03:54:49;;;;;;;;;;;;;;;15.91;72.74;96798.39;1781861;80;20221;-81
2021/05/28 03:57:15;;;;;;;;;;;;;;;15.85;73.12;96804.37;1766732;80;20178;-80
2021/05/28 03:59:41;;;;;;;;;;;;;;;15.77;73.31;96801.19;1753515;80;20134;-85
2021/05/28 04:02:07;;;;;;;;;;;;;;;15.68;73.88;96804.83;1748158;82;20155;-86
2021/05/28 04:04:34;;;;;;;;;;;;;;;15.64;74.06;96807.97;1747960;82;20166;-84
2021/05/28 04:07:01;;;;;;;;;;;;;;;15.60;74.54;96806.95;1747882;82;20147;-83
2021/05/28 04:09:27;;;;;;;;;;;;;;;15.58;75.04;96809.45;1746041;82;20146;-79
2021/05/28 04:11:53;;;;;;;;;;;;;;;15.55;73.47;96803.94;1759863;80;20163;-79
2021/05/28 04:14:19;;;;;;;;;;;;;;;15.49;73.52;96810.41;1786031;79;20151;-80
2021/05/28 04:16:45;;;;;;;;;;;;;;;15.43;73.74;96812.70;1756737;80;20168;-84
2021/05/28 04:19:12;;;;;;;;;;;;;;;15.39;74.24;96812.70;1747900;82;20190;-82
2021/05/28 04:21:38;;;;;;;;;;;;;;;15.37;74.37;96811.18;1748023;82;20146;-81
2021/05/28 04:24:05;;;;;;;;;;;;;;;15.34;75.11;96811.02;1750467;80;20163;-85
2021/05/28 04:26:31;;;;;;;;;;;;;;;15.34;73.57;96811.02;1786080;80;20487;-82
2021/05/28 04:28:57;;;;;;;;;;;;;;;15.35;74.26;96813.19;1786087;80;20483;-81
2021/05/28 04:31:24;;;;;;;;;;;;;;;15.37;74.78;96811.18;1783828;80;20175;-84
2021/05/28 04:33:50;;;;;;;;;;;;;;;15.38;74.35;96810.19;1780820;80;20167;-81
2021/05/28 04:36:16;;;;;;;;;;;;;;;15.39;75.01;96815.36;1776970;80;20452;-82
2021/05/28 04:38:42;;;;;;;;;;;;;;;15.41;75.46;96814.68;1785684;80;20178;-82
2021/05/28 04:41:08;;;;;;;;;;;;;;;15.47;75.84;96814.53;1769228;80;20154;-79
2021/05/28 04:43:35;;;;;;;;;;;;;;;15.50;74.61;96814.73;1746556;82;20158;-78
2021/05/28 04:46:01;;;;;;;;;;;;;;;15.49;74.53;96809.91;1733475;81;20508;-79
2021/05/28 04:48:27;;;;;;;;;;;;;;;15.50;74.64;96810.24;1705355;84;20152;-79
2021/05/28 04:50:53;;;;;;;;;;;;;;;15.53;75.83;96803.29;1715268;84;20133;-77
2021/05/28 04:53:19;;;;;;;;;;;;;;;15.55;75.80;96803.94;1715772;83;20149;-84
2021/05/28 04:55:45;;;;;;;;;;;;;;;15.58;76.37;96810.27;1715694;84;20172;-85
2021/05/28 04:58:11;;;;;;;;;;;;;;;15.60;76.02;96816.25;1716338;84;20223;-80
2021/05/28 05:00:39;;;;;;;;;;;;;;;15.61;76.09;96819.25;1715871;84;20172;-84
2021/05/28 05:03:05;;;;;;;;;;;;;;;15.63;75.58;96816.42;1715127;83;20179;-83
2021/05/28 05:05:31;;;;;;;;;;;;;;;15.63;75.21;96824.39;1715039;83;20180;-82
2021/05/28 05:07:57;;;;;;;;;;;;;;;15.59;76.00;96826.54;1715873;83;20192;-84
2021/05/28 05:10:23;;;;;;;;;;;;;;;15.60;75.85;96834.00;1715631;83;20204;-81
2021/05/28 05:12:50;;;;;;;;;;;;;;;15.56;74.84;96831.34;1715567;83;20164;-81
2021/05/28 05:15:16;;;;;;;;;;;;;;;15.52;75.08;96833.50;1716045;84;20152;-81
2021/05/28 05:17:42;;;;;;;;;;;;;;;15.48;75.20;96833.47;1715300;84;20184;-79
2021/05/28 05:20:09;;;;;;;;;;;;;;;15.49;74.87;96836.97;1715788;84;20181;-84
2021/05/28 05:22:35;;;;;;;;;;;;;;;15.44;75.39;96829.48;1715309;84;20484;-85
2021/05/28 05:25:02;;;;;;;;;;;;;;;15.42;75.49;96838.92;1715776;84;20210;-78
2021/05/28 05:27:28;;;;;;;;;;;;;;;15.41;76.03;96833.78;1691181;85;20177;-83
2021/05/28 05:29:54;;;;;;;;;;;;;;;15.42;75.72;96830.13;1691207;85;20171;-85
2021/05/28 05:32:21;;;;;;;;;;;;;;;15.46;76.50;96831.46;1691096;85;20146;-84
2021/05/28 05:34:47;;;;;;;;;;;;;;;15.50;76.40;96830.67;1691102;85;20174;-81
2021/05/28 05:37:13;;;;;;;;;;;;;;;15.54;76.47;96827.53;1701477;83;20194;-84
2021/05/28 05:39:40;;;;;;;;;;;;;;;15.55;76.10;96826.52;1715842;84;20153;-84
2021/05/28 05:42:07;;;;;;;;;;;;;;;15.63;75.88;96832.36;1715590;84;20219;-83
2021/05/28 05:44:33;;;;;;;;;;;;;;;15.61;75.68;96833.86;1741807;82;20583;-83
2021/05/28 05:46:59;;;;;;;;;;;;;;;15.61;76.05;96833.86;1745653;82;20498;-85
2021/05/28 05:49:25;;;;;;;;;;;;;;;15.65;75.83;96830.37;1745651;82;20151;-81
2021/05/28 05:51:51;;;;;;;;;;;;;;;15.70;76.17;96833.88;1743660;82;20185;-84
2021/05/28 05:54:17;;;;;;;;;;;;;;;15.72;75.97;96834.05;1748277;82;20175;-82
2021/05/28 05:56:43;;;;;;;;;;;;;;;15.77;75.75;96836.22;1749613;82;20219;-84
2021/05/28 05:59:09;;;;;;;;;;;;;;;15.83;75.91;96836.88;1749479;82;20155;-84
2021/05/28 06:01:35;;;;;;;;;;;;;;;15.87;76.18;96836.12;1747956;82;20167;-83
2021/05/28 06:04:01;;;;;;;;;;;;;;;15.91;75.92;96831.61;1748313;82;20160;-80
2021/05/28 06:06:28;;;;;;;;;;;;;;;15.91;75.66;96832.13;1749368;82;20460;-83
2021/05/28 06:08:54;;;;;;;;;;;;;;;15.84;76.46;96835.92;1749535;82;20524;-83
2021/05/28 06:11:20;;;;;;;;;;;;;;;15.90;76.48;96840.61;1749663;82;20152;-82
2021/05/28 06:13:47;;;;;;;;;;;;;;;15.98;75.65;96836.30;1749496;82;20152;-84
2021/05/28 06:16:13;;;;;;;;;;;;;;;16.04;76.43;96834.30;1746660;82;20178;-84
2021/05/28 06:18:39;;;;;;;;;;;;;;;16.15;76.68;96827.82;1749544;82;20156;-79
2021/05/28 06:21:09;;;;;;;;;;;;;;;16.23;76.39;96825.19;1749506;82;20184;-83
2021/05/28 06:23:36;;;;;;;;;;;;;;;16.30;75.71;96830.17;1749619;82;20211;-83
2021/05/28 06:26:02;;;;;;;;;;;;;;;16.28;74.65;96830.02;1749417;82;20152;-82
2021/05/28 06:28:28;;;;;;;;;;;;;;;16.15;74.60;96835.31;1749518;82;20184;-80
2021/05/28 06:30:56;;;;;;;;;;;;;;;16.11;74.80;96828.66;1749436;82;20163;-80
2021/05/28 06:33:23;;;;;;;;;;;;;;;16.20;75.44;96832.16;1741651;82;20201;-79
2021/05/28 06:35:49;;;;;;;;;;;;;;;16.10;73.87;96830.97;1749240;82;20261;-78
2021/05/28 06:38:15;;;;;;;;;;;;;;;16.10;75.93;96826.98;1740468;82;20469;-83
2021/05/28 06:40:41;;;;;;;;;;;;;;;16.19;75.71;96833.97;1714322;84;20163;-79
2021/05/28 06:43:08;;;;;;;;;;;;;;;16.31;77.47;96828.33;1715068;83;20168;-82
2021/05/28 06:45:35;;;;;;;;;;;;;;;16.48;77.45;96829.98;1721772;83;20180;-87
2021/05/28 06:48:02;;;;;;;;;;;;;;;16.61;76.85;96837.45;1723517;83;20164;-84
2021/05/28 06:50:31;;;;;;;;;;;;;;;16.76;76.69;96828.81;1724084;83;20148;-78
2021/05/28 06:52:56;;;;;;;;;;;;;;;16.84;76.23;96828.28;1717177;83;20219;-79
2021/05/28 06:55:22;;;;;;;;;;;;;;;16.98;76.77;96827.30;1723500;83;20132;-81
2021/05/28 06:57:48;;;;;;;;;;;;;;;17.12;76.42;96825.25;1723410;83;20152;-78
2021/05/28 07:00:15;;;;;;;;;;;;;;;17.22;76.04;96827.72;1741554;82;20154;-76
2021/05/28 07:02:41;;;;;;;;;;;;;;;17.35;76.37;96817.85;1751888;82;20490;-81
2021/05/28 07:05:08;;;;;;;;;;;;;;;17.41;75.50;96819.81;1736419;82;20588;-82
2021/05/28 07:07:34;;;;;;;;;;;;;;;17.49;75.90;96817.63;1733775;81;20513;-81
2021/05/28 07:10:00;;;;;;;;;;;;;;;17.62;75.51;96819.23;1714816;83;20505;-81
2021/05/28 07:12:26;;;;;;;;;;;;;;;17.68;74.09;96819.53;1720225;83;20573;-79
2021/05/28 07:14:52;;;;;;;;;;;;;;;17.67;73.75;96810.72;1720718;83;20502;-79
2021/05/28 07:17:18;;;;;;;;;;;;;;;17.72;73.97;96808.34;1716970;83;20196;-81
2021/05/28 07:19:45;;;;;;;;;;;;;;;17.70;73.88;96809.02;1716900;82;20488;-80
2021/05/28 07:22:11;;;;;;;;;;;;;;;17.74;74.39;96806.83;1738516;82;20159;-80
2021/05/28 07:24:37;;;;;;;;;;;;;;;17.86;74.82;96814.76;1719582;83;20168;-79
2021/05/28 07:27:04;;;;;;;;;;;;;;;17.99;74.33;96808.87;1721773;83;20136;-80
2021/05/28 07:29:30;;;;;;;;;;;;;;;18.10;73.75;96811.12;1722816;83;20472;-81
2021/05/28 07:31:56;;;;;;;;;;;;;;;18.19;72.56;96811.06;1722523;83;20148;-82
2021/05/28 07:34:23;;;;;;;;;;;;;;;18.24;73.68;96813.52;1722566;83;20252;-80
2021/05/28 07:36:49;;;;;;;;;;;;;;;18.32;73.24;96807.30;1722454;83;20236;-83
2021/05/28 07:39:16;;;;;;;;;;;;;;;18.42;73.14;96813.72;1722717;83;20147;-84
2021/05/28 07:41:42;;;;;;;;;;;;;;;18.50;71.55;96811.48;1722606;83;20218;-81
2021/05/28 07:44:08;;;;;;;;;;;;;;;18.60;71.43;96820.08;1729322;82;20146;-81
2021/05/28 07:46:40;;;;;;;;;;;;;;;18.67;70.94;96821.00;1745832;82;20138;-82
2021/05/28 07:49:03;;;;;;;;;;;;;;;18.82;70.81;96819.69;1745127;82;20200;-82
2021/05/28 07:51:29;;;;;;;;;;;;;;;18.92;70.95;96823.94;1745614;82;20162;-82
2021/05/28 07:53:55;;;;;;;;;;;;;;;19.01;70.52;96819.68;1745345;82;20150;-81
2021/05/28 07:56:21;;;;;;;;;;;;;;;19.07;70.76;96823.98;1745462;82;20150;-81
2021/05/28 07:58:47;;;;;;;;;;;;;;;19.11;71.06;96819.91;1745490;82;20182;-82
2021/05/28 08:01:13;;;;;;;;;;;;;;;19.23;70.04;96822.45;1745428;82;20162;-81
2021/05/28 08:03:39;;;;;;;;;;;;;;;19.12;69.38;96821.05;1745243;82;20181;-80
2021/05/28 08:06:05;;;;;;;;;;;;;;;19.09;70.37;96826.78;1745127;82;20220;-81
2021/05/28 08:08:31;;;;;;;;;;;;;;;19.00;68.87;96826.03;1745174;82;20518;-82
2021/05/28 08:10:57;;;;;;;;;;;;;;;18.99;69.51;96829.71;1745439;82;20502;-81
2021/05/28 08:13:23;;;;;;;;;;;;;;;19.02;69.20;96828.02;1745682;81;20483;-81
2021/05/28 08:15:50;;;;;;;;;;;;;;;19.06;68.33;96827.14;1745766;82;20154;-81
2021/05/28 08:18:16;;;;;;;;;;;;;;;19.13;68.57;96820.56;1745483;82;20420;-81
2021/05/28 08:20:42;;;;;;;;;;;;;;;19.22;67.61;96823.47;1745515;82;20134;-82
2021/05/28 08:23:08;;;;;;;;;;;;;;;19.21;67.44;96825.00;1745553;82;20150;-80
2021/05/28 08:25:35;;;;;;;;;;;;;;;19.19;69.16;96829.17;1745341;82;20154;-79
2021/05/28 08:28:01;;;;;;;;;;;;;;;19.20;68.11;96828.16;1745463;82;20161;-80
2021/05/28 08:30:27;;;;;;;;;;;;;;;19.27;68.32;96831.74;1745466;82;20150;-80
2021/05/28 08:32:53;;;;;;;;;;;;;;;19.35;67.38;96833.50;1745311;82;20146;-80
2021/05/28 08:35:19;;;;;;;;;;;;;;;19.42;69.11;96833.07;1745638;82;20154;-80
2021/05/28 08:37:47;;;;;;;;;;;;;;;19.45;69.02;96837.21;1745610;82;20238;-81
2021/05/28 08:40:15;;;;;;;;;;;;;;;19.43;67.33;96841.94;1745728;82;20130;-79
2021/05/28 08:42:43;;;;;;;;;;;;;;;19.21;66.71;96833.83;1745367;82;20506;-80
2021/05/28 08:45:11;;;;;;;;;;;;;;;19.25;67.51;96842.30;1745463;81;20463;-80
2021/05/28 08:47:40;;;;;;;;;;;;;;;19.38;67.79;96846.50;1745540;82;20221;-81
2021/05/28 08:50:06;;;;;;;;;;;;;;;19.45;66.21;96846.56;1745583;82;20178;-81
2021/05/28 08:52:33;;;;;;;;;;;;;;;19.55;66.84;96840.95;1745545;82;20150;-81
2021/05/28 08:54:59;;;;;;;;;;;;;;;19.70;65.98;96839.59;1745480;82;20162;-80
2021/05/28 08:57:25;;;;;;;;;;;;;;;19.84;66.21;96844.59;1745532;82;20198;-80
2021/05/28 08:59:51;;;;;;;;;;;;;;;19.95;66.26;96850.30;1745547;82;20190;-80
2021/05/28 09:02:35;;;;;;;;;;;;;;;20.04;65.21;96848.34;1745613;82;20170;-80
2021/05/28 09:05:13;;;;;;;;;;;;;;;20.15;64.52;96852.36;1723921;81;20218;-81
2021/05/28 09:07:41;;;;;;;;;;;;;;;20.23;63.30;96858.92;1745488;82;20166;-81
2021/05/28 09:10:29;;;;;;;;;;;;;;;20.17;64.30;96854.34;1745775;82;20186;-80
2021/05/28 09:13:06;;;;;;;;;;;;;;;20.01;64.17;96852.73;1745396;81;20218;-80
2021/05/28 09:15:33;;;;;;;;;;;;;;;20.04;63.90;96853.70;1745442;82;20218;-80
2021/05/28 09:17:59;;;;;;;;;;;;;;;20.07;65.23;96859.17;1745497;82;20142;-81
2021/05/28 09:20:25;;;;;;;;;;;;;;;20.14;64.41;96857.39;1745545;82;20186;-78
2021/05/28 09:23:16;;;;;;;;;;;;;;;20.26;63.07;96859.89;1745533;82;20162;-79
2021/05/28 09:26:03;;;;;;;;;;;;;;;20.37;65.87;96860.41;1744505;82;20166;-80
2021/05/28 09:28:41;;;;;;;;;;;;;;;20.31;64.23;96863.33;1745713;82;20150;-81
2021/05/28 09:31:10;;;;;;;;;;;;;;;20.36;64.71;96866.77;1744810;82;20138;-81
2021/05/28 09:33:40;;;;;;;;;;;;;;;20.43;63.41;96866.32;1745426;82;20146;-81
2021/05/28 09:36:21;;;;;;;;;;;;;;;20.53;64.00;96865.98;1745658;82;20150;-81
2021/05/28 09:39:00;;;;;;;;;;;;;;;20.44;63.06;96864.78;1745427;82;20506;-81
2021/05/28 09:41:45;;;;;;;;;;;;;;;20.38;63.79;96868.23;1745384;82;20561;-80
2021/05/28 09:44:23;;;;;;;;;;;;;;;20.43;62.58;96860.45;1748522;81;20213;-80
2021/05/28 09:47:01;;;;;;;;;;;;;;;20.55;61.52;96862.61;1758725;82;20236;-81
2021/05/28 09:49:36;;;;;;;;;;;;;;;20.51;61.14;96864.84;1758711;81;20558;-81
2021/05/28 09:52:05;;;;;;;;;;;;;;;20.30;62.16;96875.05;1746944;82;20227;-81
2021/05/28 09:54:31;;;;;;;;;;;;;;;20.20;63.33;96874.01;1758811;82;20221;-82
2021/05/28 09:56:58;;;;;;;;;;;;;;;20.22;61.10;96879.19;1758807;82;20150;-81
2021/05/28 09:59:24;;;;;;;;;;;;;;;20.15;62.12;96876.93;1758767;82;20225;-82
2021/05/28 10:02:01;;;;;;;;;;;;;;;19.85;61.67;96880.52;1758708;82;20169;-79
2021/05/28 10:04:29;;;;;;;;;;;;;;;19.74;62.60;96881.81;1758581;81;20158;-82
2021/05/28 10:06:55;;;;;;;;;;;;;;;19.73;62.97;96881.48;1758783;82;20161;-80
2021/05/28 10:09:22;;;;;;;;;;;;;;;19.76;62.87;96877.59;1758780;81;20165;-81
2021/05/28 10:11:48;;;;;;;;;;;;;;;19.82;61.44;96879.52;1758642;82;20177;-82
2021/05/28 10:14:15;;;;;;;;;;;;;;;19.81;61.52;96874.69;1758750;80;20170;-80
2021/05/28 10:16:41;;;;;;;;;;;;;;;19.99;62.50;96876.67;1758683;82;20149;-82
2021/05/28 10:19:07;;;;;;;;;;;;;;;20.02;60.77;96878.46;1758614;82;20154;-79
2021/05/28 10:21:33;;;;;;;;;;;;;;;20.03;61.00;96877.45;1760984;81;20468;-80
2021/05/28 10:23:59;;;;;;;;;;;;;;;20.20;59.72;96877.20;1762541;81;20480;-82
2021/05/28 10:26:29;;;;;;;;;;;;;;;20.38;59.97;96871.41;1760339;80;20628;-80
2021/05/28 10:28:56;;;;;;;;;;;;;;;20.52;59.46;96862.98;1770699;80;20568;-82
2021/05/28 10:32:00;;;;;;;;;;;;;;;20.72;58.90;96863.18;1788513;80;20491;-80
2021/05/28 10:34:27;;;;;;;;;;;;;;;20.95;60.99;96867.48;1780806;80;20149;-79
2021/05/28 10:36:56;;;;;;;;;;;;;;;21.17;59.11;96870.44;1780287;80;20176;-79
2021/05/28 10:39:23;;;;;;;;;;;;;;;21.12;57.79;96862.14;1783759;80;20193;-81
2021/05/28 10:41:57;;;;;;;;;;;;;;;21.20;57.70;96860.64;1774978;80;20162;-80
2021/05/28 10:44:25;;;;;;;;;;;;;;;21.36;58.13;96864.88;1771128;80;20166;-79
2021/05/28 10:46:58;;;;;;;;;;;;;;;21.46;54.78;96855.14;1751134;80;20216;-78
2021/05/28 10:49:42;;;;;;;;;;;;;;;21.56;58.93;96853.95;1738981;81;20153;-78
2021/05/28 10:52:10;;;;;;;;;;;;;;;21.66;55.90;96844.53;1755731;80;20166;-77
2021/05/28 10:54:38;;;;;;;;;;;;;;;21.80;57.20;96848.09;1744610;80;20529;-78
2021/05/28 10:57:18;;;;;;;;;;;;;;;22.01;57.12;96844.97;1749726;80;20517;-79
2021/05/28 10:59:46;;;;;;;;;;;;;;;22.26;58.02;96845.23;1735420;80;20169;-79
2021/05/28 11:02:12;;;;;;;;;;;;;;;22.48;54.81;96841.04;1769704;80;20177;-79
2021/05/28 11:04:42;;;;;;;;;;;;;;;22.46;54.37;96846.63;1734167;81;20166;-80
2021/05/28 11:07:12;;;;;;;;;;;;;;;22.48;55.00;96841.04;1744599;82;20229;-78
2021/05/28 11:09:50;;;;;;;;;;;;;;;22.66;53.80;96836.91;1745494;80;20257;-79
2021/05/28 11:12:29;;;;;;;;;;;;;;;22.92;53.60;96838.77;1773419;80;20170;-80
2021/05/28 11:15:10;;;;;;;;;;;;;;;22.99;54.08;96839.58;1751126;80;20668;-80
2021/05/28 11:17:58;;;;;;;;;;;;;;;23.19;56.18;96833.38;1764965;80;20205;-81
2021/05/28 11:20:34;;;;;;;;;;;;;;;23.36;52.69;96830.54;1766702;80;20517;-80
2021/05/28 11:23:03;;;;;;;;;;;;;;;23.54;53.67;96833.91;1752708;81;20178;-79
2021/05/28 11:25:32;;;;;;;;;;;;;;;23.46;53.39;96834.14;1744817;80;20197;-80
2021/05/28 11:28:06;;;;;;;;;;;;;;;23.45;51.23;96827.11;1746535;81;20486;-81
2021/05/28 11:30:40;;;;;;;;;;;;;;;23.66;53.87;96834.59;1751751;81;20214;-81
2021/05/28 11:33:07;;;;;;;;;;;;;;;23.60;50.50;96829.55;1748539;82;20787;-80
2021/05/28 11:35:42;;;;;;;;;;;;;;;23.54;47.60;96829.03;1717564;81;20615;-80
2021/05/28 11:38:12;;;;;;;;;;;;;;;23.45;52.15;96822.23;1727070;80;20159;-81
2021/05/28 11:40:42;;;;;;;;;;;;;;;23.48;48.00;96819.94;1757189;80;20565;-80
2021/05/28 11:43:16;;;;;;;;;;;;;;;23.47;50.65;96818.82;1749790;80;20177;-80
2021/05/28 11:45:53;;;;;;;;;;;;;;;23.30;48.04;96823.83;1753655;79;20186;-81
2021/05/28 11:48:21;;;;;;;;;;;;;;;23.23;50.20;96816.62;1782183;80;20492;-80
2021/05/28 11:50:50;;;;;;;;;;;;;;;23.35;48.71;96821.35;1778324;80;20534;-80
2021/05/28 11:53:17;;;;;;;;;;;;;;;23.37;48.21;96818.75;1749290;82;20174;-80
2021/05/28 11:55:52;;;;;;;;;;;;;;;23.36;51.64;96825.70;1756595;82;20177;-79
2021/05/28 11:58:23;;;;;;;;;;;;;;;23.28;48.31;96815.17;1751011;82;20185;-81
2021/05/28 12:00:52;;;;;;;;;;;;;;;23.29;48.85;96808.23;1757838;80;20169;-80
2021/05/28 12:03:19;;;;;;;;;;;;;;;23.16;49.51;96813.59;1755773;80;20184;-79
2021/05/28 12:05:47;;;;;;;;;;;;;;;23.18;50.85;96818.25;1738086;80;20181;-80
2021/05/28 12:08:20;;;;;;;;;;;;;;;23.16;48.84;96825.19;1755901;82;20196;-81
2021/05/28 12:10:49;;;;;;;;;;;;;;;23.13;49.68;96814.85;1762359;80;20211;-80
2021/05/28 12:13:17;;;;;;;;;;;;;;;23.13;49.45;96814.85;1786998;80;20147;-80
2021/05/28 12:15:48;;;;;;;;;;;;;;;23.08;49.99;96828.92;1753364;80;20162;-80
2021/05/28 12:18:27;;;;;;;;;;;;;;;22.79;49.49;96822.15;1719656;83;20152;-80
2021/05/28 12:20:56;;;;;;;;;;;;;;;22.67;50.55;96820.61;1734144;82;20245;-80
2021/05/28 12:23:28;;;;;;;;;;;;;;;22.50;49.17;96820.19;1732039;80;20277;-80
2021/05/28 12:25:57;;;;;;;;;;;;;;;22.38;49.50;96822.63;1752399;80;20276;-80
2021/05/28 12:28:27;;;;;;;;;;;;;;;22.30;50.81;96825.52;1758867;80;20185;-80
2021/05/28 12:30:58;;;;;;;;;;;;;;;22.08;49.94;96829.70;1748212;80;20588;-80
2021/05/28 12:33:29;;;;;;;;;;;;;;;21.92;50.77;96835.45;1743057;82;20224;-80
2021/05/28 12:35:57;;;;;;;;;;;;;;;21.67;50.47;96842.66;1759122;80;20166;-81
2021/05/28 12:38:26;;;;;;;;;;;;;;;21.45;49.83;96829.85;1784557;80;20289;-80
2021/05/28 12:40:52;;;;;;;;;;;;;;;;;;1785573;80;20151;-79
2021/05/28 12:43:22;;;;;;;;;;;;;;;21.17;49.04;96839.63;1786544;80;20183;-80
2021/05/28 12:45:49;;;;;;;;;;;;;;;21.09;49.20;96849.16;1786220;80;20216;-79
2021/05/28 12:48:15;;;;;;;;;;;;;;;21.08;49.34;96841.30;1782691;80;20217;-80
2021/05/28 12:50:46;;;;;;;;;;;;;;;21.09;49.06;96850.50;1752986;81;20174;-79
2021/05/28 12:53:20;;;;;;;;;;;;;;;21.08;47.47;96848.00;1765699;80;20163;-78